Time;durP1;ratioP1;P1;durP2;ratioP2;P2;SDS_P1;SDS_P2;PMS_P1;PMS_P2;Temp;Humidity;BMP_temperature;BMP_pressure;BME280_temperature;BME280_humidity;BME280_pressure;Samples;Min_cycle;Max_cycle;Signal;HPM_P1;HPM_P2
2023/06/07 00:00:15;;;;;;;3.73;3.43;;;16.10;99.90;;;;;;5053270;28;20538;-79
2023/06/07 00:02:41;;;;;;;4.00;3.70;;;16.10;99.90;;;;;;5053542;28;20163;-79
2023/06/07 00:05:07;;;;;;;3.70;3.50;;;16.00;99.90;;;;;;5053527;28;20186;-80
2023/06/07 00:07:35;;;;;;;3.30;3.10;;;16.00;99.90;;;;;;5053756;28;20179;-78
2023/06/07 00:10:02;;;;;;;3.03;2.90;;;16.00;99.90;;;;;;5053732;28;20179;-78
2023/06/07 00:12:28;;;;;;;4.17;3.30;;;16.00;99.90;;;;;;5053447;28;20313;-80
2023/06/07 00:14:54;;;;;;;4.63;3.13;;;16.00;99.90;;;;;;5053431;28;20313;-80
2023/06/07 00:17:20;;;;;;;3.50;3.30;;;16.00;99.90;;;;;;5054477;28;20207;-78
2023/06/07 00:19:46;;;;;;;3.13;3.03;;;16.00;99.90;;;;;;5038269;28;20194;-79
2023/06/07 00:22:13;;;;;;;3.40;3.10;;;16.00;99.90;;;;;;5054588;28;20641;-79
2023/06/07 00:24:39;;;;;;;3.40;3.13;;;16.00;99.90;;;;;;5053411;28;20243;-79
2023/06/07 00:27:05;;;;;;;3.60;3.30;;;16.00;99.90;;;;;;5053571;28;20176;-81
2023/06/07 00:29:31;;;;;;;3.30;3.10;;;15.90;99.90;;;;;;5035625;28;20579;-78
2023/06/07 00:31:56;;;;;;;3.57;3.37;;;15.90;99.90;;;;;;5053521;28;20179;-79
2023/06/07 00:34:22;;;;;;;3.63;3.30;;;15.90;99.90;;;;;;5052884;28;20220;-79
2023/06/07 00:36:48;;;;;;;2.97;2.77;;;15.90;99.90;;;;;;5054282;28;20225;-78
2023/06/07 00:39:14;;;;;;;2.83;2.70;;;16.00;99.90;;;;;;5053646;28;20194;-80
2023/06/07 00:41:39;;;;;;;3.50;3.20;;;16.00;99.90;;;;;;5064824;28;20184;-79
2023/06/07 00:44:05;;;;;;;3.30;3.20;;;16.00;99.90;;;;;;5053173;28;20183;-80
2023/06/07 00:46:32;;;;;;;3.27;3.07;;;15.90;99.90;;;;;;5053315;28;20183;-79
2023/06/07 00:48:58;;;;;;;3.07;2.87;;;16.00;99.90;;;;;;5053329;28;20180;-78
2023/06/07 00:51:27;;;;;;;3.00;2.80;;;16.00;99.90;;;;;;5057901;28;20243;-80
2023/06/07 00:53:55;;;;;;;3.07;2.87;;;16.00;99.90;;;;;;5066024;28;20207;-78
2023/06/07 00:56:21;;;;;;;3.03;2.93;;;15.90;99.90;;;;;;5057247;28;20172;-79
2023/06/07 00:58:47;;;;;;;3.50;3.20;;;15.90;99.90;;;;;;5056701;28;20654;-80
2023/06/07 01:01:13;;;;;;;3.07;2.87;;;15.90;99.90;;;;;;5057237;28;20176;-78
2023/06/07 01:03:39;;;;;;;3.67;3.47;;;15.90;99.90;;;;;;5057674;28;20211;-79
2023/06/07 01:06:05;;;;;;;3.73;3.50;;;15.90;99.90;;;;;;5040185;28;20186;-80
2023/06/07 01:08:31;;;;;;;4.80;3.43;;;15.90;99.90;;;;;;5057127;28;20176;-78
2023/06/07 01:11:01;;;;;;;3.47;3.27;;;16.00;99.90;;;;;;5057163;28;20214;-81
2023/06/07 01:13:29;;;;;;;4.33;3.97;;;16.00;99.90;;;;;;5056029;28;20553;-80
2023/06/07 01:15:55;;;;;;;4.67;4.30;;;15.90;99.90;;;;;;5058118;28;20991;-79
2023/06/07 01:18:24;;;;;;;4.93;4.47;;;15.90;99.90;;;;;;5060707;28;20611;-78
2023/06/07 01:20:54;;;;;;;5.23;4.83;;;15.90;99.90;;;;;;5077518;28;20183;-80
2023/06/07 01:23:31;;;;;;;4.80;4.50;;;15.90;99.90;;;;;;5076345;28;20152;-80
2023/06/07 01:26:01;;;;;;;5.03;4.43;;;15.90;99.90;;;;;;5064239;28;20555;-80
2023/06/07 01:28:37;;;;;;;4.90;4.50;;;15.80;99.90;;;;;;5056048;28;20176;-78
2023/06/07 01:31:03;;;;;;;5.27;4.73;;;15.80;99.90;;;;;;5056497;28;20170;-79
2023/06/07 01:33:32;;;;;;;7.10;5.10;;;15.80;99.90;;;;;;5055778;28;20249;-78
2023/06/07 01:35:59;;;;;;;5.57;5.07;;;15.80;99.90;;;;;;5056072;28;20221;-77
2023/06/07 01:38:27;;;;;;;5.00;4.53;;;15.70;99.90;;;;;;5037860;28;20195;-79
2023/06/07 01:40:54;;;;;;;6.30;4.73;;;15.80;99.90;;;;;;5056185;28;20677;-79
2023/06/07 01:43:21;;;;;;;5.60;5.20;;;15.80;99.90;;;;;;5058202;28;20776;-79
2023/06/07 01:45:48;;;;;;;4.97;4.57;;;15.80;99.90;;;;;;5059317;28;20171;-79
2023/06/07 01:48:15;;;;;;;5.10;4.70;;;15.80;99.90;;;;;;5058216;28;20168;-79
2023/06/07 01:50:41;;;;;;;5.30;4.80;;;15.80;99.90;;;;;;5055832;28;20265;-78
2023/06/07 01:53:06;;;;;;;4.87;4.57;;;15.80;99.90;;;;;;5055057;28;20168;-78
2023/06/07 01:55:32;;;;;;;5.27;4.87;;;15.80;99.90;;;;;;5054704;28;20181;-78
2023/06/07 01:58:28;;;;;;;4.97;4.67;;;15.80;99.90;;;;;;5055075;28;20175;-78
2023/06/07 02:01:07;;;;;;;5.23;4.83;;;15.80;99.90;;;;;;5055433;28;20553;-80
2023/06/07 02:03:46;;;;;;;5.37;4.90;;;15.80;99.90;;;;;;5054973;28;20170;-78
2023/06/07 02:06:16;;;;;;;5.10;4.70;;;15.80;99.90;;;;;;5055333;28;20202;-79
2023/06/07 02:08:53;;;;;;;5.90;5.40;;;15.90;99.90;;;;;;5054256;28;20167;-79
2023/06/07 02:11:22;;;;;;;5.60;5.20;;;15.80;99.90;;;;;;5054465;28;20251;-78
2023/06/07 02:13:51;;;;;;;5.47;5.07;;;15.80;99.90;;;;;;5038007;28;20886;-79
2023/06/07 02:16:32;;;;;;;5.00;4.60;;;15.80;99.90;;;;;;5044465;28;20612;-79
2023/06/07 02:19:07;;;;;;;5.53;5.10;;;15.80;99.90;;;;;;5064012;28;20156;-80
2023/06/07 02:21:35;;;;;;;5.50;5.10;;;15.80;99.90;;;;;;5054405;28;20170;-81
2023/06/07 02:24:01;;;;;;;5.87;4.97;;;15.80;99.90;;;;;;5053767;28;20531;-81
2023/06/07 02:26:27;;;;;;;5.27;4.77;;;15.90;99.90;;;;;;5054393;28;20233;-79
2023/06/07 02:28:53;;;;;;;6.10;5.60;;;15.80;99.90;;;;;;5065427;28;20175;-81
2023/06/07 02:31:20;;;;;;;5.10;4.70;;;15.70;99.90;;;;;;5054076;28;20176;-80
2023/06/07 02:33:47;;;;;;;5.60;5.10;;;15.70;99.90;;;;;;5053431;28;20211;-79
2023/06/07 02:36:13;;;;;;;6.10;5.23;;;15.70;99.90;;;;;;5035331;28;20199;-79
2023/06/07 02:38:39;;;;;;;6.30;5.10;;;15.70;99.90;;;;;;5053279;28;20240;-79
2023/06/07 02:41:05;;;;;;;6.13;5.63;;;15.70;99.90;;;;;;5053312;28;20170;-82
2023/06/07 02:43:31;;;;;;;6.90;5.50;;;15.70;99.90;;;;;;5053198;28;20216;-79
2023/06/07 02:45:56;;;;;;;5.70;5.30;;;15.70;99.90;;;;;;5053489;28;20193;-81
2023/06/07 02:48:22;;;;;;;5.80;5.30;;;15.80;99.90;;;;;;5053512;28;20226;-81
2023/06/07 02:50:48;;;;;;;6.23;5.63;;;15.70;99.90;;;;;;5053583;28;20227;-79
2023/06/07 02:53:14;;;;;;;6.07;5.47;;;15.70;99.90;;;;;;5053361;28;20178;-80
2023/06/07 02:55:39;;;;;;;5.60;5.20;;;15.70;99.90;;;;;;5053006;28;20643;-79
2023/06/07 02:58:05;;;;;;;6.80;5.83;;;15.80;99.90;;;;;;5053770;28;20187;-80
2023/06/07 03:00:32;;;;;;;6.53;5.93;;;15.80;99.90;;;;;;5055307;28;20182;-80
2023/06/07 03:02:58;;;;;;;6.30;5.80;;;15.70;99.90;;;;;;5056121;28;20182;-80
2023/06/07 03:05:26;;;;;;;7.33;6.20;;;15.70;99.90;;;;;;5054865;28;20644;-79
2023/06/07 03:07:52;;;;;;;6.53;5.97;;;15.70;99.90;;;;;;5051587;28;20179;-80
2023/06/07 03:10:18;;;;;;;6.43;5.83;;;15.70;99.90;;;;;;5051860;28;20170;-78
2023/06/07 03:12:45;;;;;;;6.10;5.70;;;15.70;99.90;;;;;;5052916;28;20180;-79
2023/06/07 03:15:11;;;;;;;6.33;5.73;;;15.70;99.90;;;;;;5052118;28;20664;-79
2023/06/07 03:17:38;;;;;;;7.50;6.27;;;15.80;99.90;;;;;;5034364;28;20186;-78
2023/06/07 03:20:06;;;;;;;6.27;5.67;;;15.80;99.90;;;;;;5052388;28;20239;-78
2023/06/07 03:22:32;;;;;;;9.33;6.23;;;15.70;99.90;;;;;;5052670;28;20189;-79
2023/06/07 03:24:58;;;;;;;6.17;5.67;;;15.70;99.90;;;;;;5052245;28;20172;-79
2023/06/07 03:27:24;;;;;;;6.33;5.67;;;15.60;99.90;;;;;;5052313;28;20202;-79
2023/06/07 03:29:50;;;;;;;6.90;6.30;;;15.60;99.90;;;;;;5052607;28;20259;-78
2023/06/07 03:32:16;;;;;;;7.10;6.40;;;15.70;99.90;;;;;;5052321;28;20168;-79
2023/06/07 03:34:42;;;;;;;6.63;5.93;;;15.70;99.90;;;;;;5052294;28;20203;-78
2023/06/07 03:37:08;;;;;;;6.87;6.20;;;15.60;99.90;;;;;;5053180;28;20178;-80
2023/06/07 03:39:36;;;;;;;6.97;6.37;;;15.60;99.90;;;;;;5052303;28;20230;-80
2023/06/07 03:42:02;;;;;;;6.83;6.20;;;15.70;99.90;;;;;;5052457;28;20179;-80
2023/06/07 03:44:27;;;;;;;7.27;5.53;;;15.70;99.90;;;;;;5052313;28;20179;-79
2023/06/07 03:46:53;;;;;;;7.57;6.20;;;15.70;99.90;;;;;;5052083;28;20171;-80
2023/06/07 03:49:19;;;;;;;9.23;6.40;;;15.70;99.90;;;;;;5052522;28;20171;-78
2023/06/07 03:51:45;;;;;;;6.87;6.17;;;15.60;99.90;;;;;;5052618;28;20307;-80
2023/06/07 03:54:10;;;;;;;6.77;6.07;;;15.60;99.90;;;;;;5064499;28;20240;-80
2023/06/07 03:56:36;;;;;;;6.60;5.80;;;15.60;99.90;;;;;;5052668;28;20168;-80
2023/06/07 03:59:03;;;;;;;6.17;5.67;;;15.60;99.90;;;;;;5052233;28;20182;-79
2023/06/07 04:01:28;;;;;;;6.20;5.57;;;15.60;99.90;;;;;;5055970;28;20170;-81
2023/06/07 04:03:54;;;;;;;6.77;6.07;;;15.60;99.90;;;;;;5060760;28;20258;-80
2023/06/07 04:06:20;;;;;;;6.90;6.30;;;15.60;99.90;;;;;;5059305;28;20167;-81
2023/06/07 04:08:47;;;;;;;6.83;6.23;;;15.50;99.90;;;;;;5053616;28;20171;-83
2023/06/07 04:11:13;;;;;;;6.93;6.33;;;15.60;99.90;;;;;;5052924;28;20171;-79
2023/06/07 04:13:42;;;;;;;7.23;6.47;;;15.60;99.90;;;;;;5052114;28;20200;-79
2023/06/07 04:16:07;;;;;;;8.17;6.10;;;15.60;99.90;;;;;;5053607;28;20186;-79
2023/06/07 04:18:33;;;;;;;7.43;6.10;;;15.60;99.90;;;;;;5039292;28;20271;-79
2023/06/07 04:20:59;;;;;;;6.47;5.90;;;15.70;99.90;;;;;;5051795;28;20221;-79
2023/06/07 04:23:25;;;;;;;11.17;6.50;;;15.70;99.90;;;;;;5051816;28;20185;-78
2023/06/07 04:25:53;;;;;;;7.20;6.50;;;15.70;99.90;;;;;;5051910;28;20203;-80
2023/06/07 04:28:23;;;;;;;7.30;6.37;;;15.80;99.90;;;;;;5035292;28;20181;-78
2023/06/07 04:30:53;;;;;;;6.73;6.13;;;15.70;99.90;;;;;;5055912;28;20179;-81
2023/06/07 04:33:19;;;;;;;6.30;5.80;;;15.70;99.90;;;;;;5055872;28;20202;-80
2023/06/07 04:35:46;;;;;;;6.37;5.77;;;15.80;99.90;;;;;;5055820;28;20650;-80
2023/06/07 04:38:16;;;;;;;6.87;6.30;;;15.80;99.90;;;;;;5055565;28;20236;-79
2023/06/07 04:40:48;;;;;;;6.63;6.03;;;15.80;99.90;;;;;;5056437;28;20184;-79
2023/06/07 04:43:18;;;;;;;7.97;6.40;;;15.90;99.90;;;;;;5056131;28;20183;-79
2023/06/07 04:45:54;;;;;;;6.40;5.87;;;15.90;99.90;;;;;;5055914;28;20305;-79
2023/06/07 04:48:26;;;;;;;7.00;6.30;;;15.90;99.90;;;;;;5055794;28;20193;-81
2023/06/07 04:50:54;;;;;;;6.47;5.93;;;15.90;99.90;;;;;;5055356;28;20306;-78
2023/06/07 04:53:19;;;;;;;7.07;6.37;;;15.90;99.90;;;;;;5055458;28;20249;-79
2023/06/07 04:55:47;;;;;;;7.47;6.70;;;16.00;99.90;;;;;;5055799;28;20207;-79
2023/06/07 04:58:16;;;;;;;6.93;6.30;;;16.00;99.90;;;;;;5055912;28;20187;-80
2023/06/07 05:00:43;;;;;;;7.47;6.60;;;16.00;99.90;;;;;;5056682;28;20175;-79
2023/06/07 05:03:13;;;;;;;6.67;6.07;;;16.00;99.90;;;;;;5057220;28;20167;-78
2023/06/07 05:05:40;;;;;;;6.70;6.10;;;16.10;99.90;;;;;;5055116;28;20161;-79
2023/06/07 05:08:06;;;;;;;7.10;6.40;;;16.10;99.90;;;;;;5054744;28;20639;-79
2023/06/07 05:10:32;;;;;;;6.97;6.27;;;16.10;99.90;;;;;;5055294;28;20200;-79
2023/06/07 05:12:58;;;;;;;6.80;6.13;;;16.20;99.90;;;;;;5055091;28;20178;-80
2023/06/07 05:15:24;;;;;;;7.23;6.63;;;16.30;99.90;;;;;;5036689;28;20212;-81
2023/06/07 05:17:50;;;;;;;7.30;6.60;;;16.30;99.90;;;;;;5054849;28;20244;-78
2023/06/07 05:20:17;;;;;;;7.00;6.30;;;16.30;99.90;;;;;;5054706;28;20177;-79
2023/06/07 05:22:43;;;;;;;7.00;6.27;;;16.40;99.90;;;;;;5055237;28;20172;-79
2023/06/07 05:25:11;;;;;;;6.87;6.33;;;16.50;99.90;;;;;;5036983;28;20680;-82
2023/06/07 05:27:38;;;;;;;11.30;6.40;;;17.40;99.90;;;;;;5037180;28;20233;-79
2023/06/07 05:30:06;;;;;;;7.73;7.03;;;16.70;99.90;;;;;;5061034;28;20208;-78
2023/06/07 05:32:35;;;;;;;9.07;6.93;;;16.70;99.90;;;;;;5054976;28;20633;-78
2023/06/07 05:35:02;;;;;;;8.77;7.27;;;16.70;99.90;;;;;;5054496;28;20295;-77
2023/06/07 05:37:29;;;;;;;7.17;6.57;;;16.80;99.90;;;;;;5054612;28;20167;-78
2023/06/07 05:39:55;;;;;;;8.37;7.43;;;16.80;99.90;;;;;;5057343;28;20268;-77
2023/06/07 05:42:21;;;;;;;8.43;6.93;;;16.90;99.90;;;;;;5060079;28;20207;-79
2023/06/07 05:44:50;;;;;;;7.67;6.97;;;17.10;99.90;;;;;;5054407;28;20617;-80
2023/06/07 05:47:17;;;;;;;8.00;7.20;;;17.20;99.90;;;;;;5055491;28;20254;-79
2023/06/07 05:49:44;;;;;;;7.93;6.77;;;17.20;99.90;;;;;;5054437;28;20669;-79
2023/06/07 05:52:10;;;;;;;6.97;6.23;;;17.20;99.90;;;;;;5056211;28;20358;-78
2023/06/07 05:54:38;;;;;;;7.87;6.47;;;17.30;99.90;;;;;;5055882;28;20751;-80
2023/06/07 05:57:05;;;;;;;6.40;5.80;;;17.30;99.90;;;;;;5055568;28;20179;-78
2023/06/07 05:59:32;;;;;;;9.10;6.33;;;17.30;99.90;;;;;;5054962;28;20256;-80
2023/06/07 06:01:57;;;;;;;7.70;6.60;;;17.40;99.90;;;;;;5054359;28;20305;-80
2023/06/07 06:04:24;;;;;;;7.20;6.47;;;17.50;99.90;;;;;;5035958;28;20226;-80
2023/06/07 06:06:50;;;;;;;6.17;5.67;;;17.40;99.90;;;;;;5054895;28;20580;-80
2023/06/07 06:09:17;;;;;;;6.90;6.40;;;17.40;99.90;;;;;;5054231;28;20657;-78
2023/06/07 06:11:43;;;;;;;6.77;6.07;;;17.50;99.90;;;;;;5054036;28;20544;-78
2023/06/07 06:14:10;;;;;;;7.03;6.43;;;17.40;99.90;;;;;;5053759;28;20211;-78
2023/06/07 06:16:36;;;;;;;7.37;6.63;;;17.50;99.90;;;;;;5056504;28;20174;-79
2023/06/07 06:19:01;;;;;;;7.00;6.30;;;17.50;99.90;;;;;;5054972;28;20171;-78
2023/06/07 06:21:27;;;;;;;7.07;6.47;;;17.40;99.90;;;;;;5053804;28;20249;-77
2023/06/07 06:23:53;;;;;;;7.00;6.13;;;17.30;99.90;;;;;;5053647;28;20184;-77
2023/06/07 06:26:18;;;;;;;7.37;5.67;;;17.40;99.90;;;;;;5035801;28;20265;-80
2023/06/07 06:28:44;;;;;;;7.07;6.47;;;17.50;99.90;;;;;;5052556;28;20185;-78
2023/06/07 06:31:11;;;;;;;7.37;6.77;;;17.50;99.90;;;;;;5053439;28;20605;-78
2023/06/07 06:33:36;;;;;;;8.27;6.80;;;17.50;99.90;;;;;;5053171;28;20304;-77
2023/06/07 06:36:03;;;;;;;7.33;6.63;;;17.70;99.90;;;;;;5053351;28;20203;-78
2023/06/07 06:38:28;;;;;;;6.73;6.00;;;17.60;99.90;;;;;;5053176;28;20258;-77
2023/06/07 06:40:54;;;;;;;7.00;6.43;;;17.70;99.90;;;;;;5053338;28;20179;-78
2023/06/07 06:43:20;;;;;;;6.90;6.30;;;17.80;99.90;;;;;;5053066;28;20214;-77
2023/06/07 06:45:46;;;;;;;6.93;6.30;;;17.80;99.90;;;;;;5053042;28;20280;-78
2023/06/07 06:48:12;;;;;;;6.97;6.37;;;17.90;99.90;;;;;;5053121;28;20578;-80
2023/06/07 06:50:38;;;;;;;7.77;7.07;;;18.00;99.90;;;;;;5051974;28;20619;-77
2023/06/07 06:53:04;;;;;;;7.27;6.23;;;18.10;99.90;;;;;;5052916;28;20175;-79
2023/06/07 06:55:30;;;;;;;7.40;6.80;;;18.30;99.90;;;;;;5052941;28;20199;-76
2023/06/07 06:57:56;;;;;;;7.20;6.50;;;18.50;99.90;;;;;;5053029;28;20182;-78
2023/06/07 07:00:23;;;;;;;8.17;7.37;;;18.40;99.90;;;;;;5053111;28;20180;-78
2023/06/07 07:02:49;;;;;;;7.27;6.57;;;18.50;99.90;;;;;;5054939;28;20168;-80
2023/06/07 07:05:15;;;;;;;6.83;6.27;;;18.60;99.90;;;;;;5057141;28;20262;-80
2023/06/07 07:07:41;;;;;;;7.07;6.37;;;18.40;99.90;;;;;;5053761;28;20627;-76
2023/06/07 07:10:08;;;;;;;9.47;7.53;;;18.50;99.90;;;;;;5052896;28;20176;-78
2023/06/07 07:12:39;;;;;;;6.73;6.23;;;18.60;99.90;;;;;;5052771;28;20206;-77
2023/06/07 07:15:05;;;;;;;6.87;6.23;;;18.70;99.90;;;;;;5052608;28;20474;-80
2023/06/07 07:17:31;;;;;;;7.40;6.77;;;18.60;99.90;;;;;;5056096;28;20179;-80
2023/06/07 07:19:57;;;;;;;7.53;6.83;;;18.80;99.90;;;;;;5053166;28;20180;-77
2023/06/07 07:22:23;;;;;;;7.63;6.93;;;18.80;99.90;;;;;;5052448;28;20669;-78
2023/06/07 07:24:48;;;;;;;7.67;6.97;;;19.00;99.90;;;;;;5052459;28;20226;-79
2023/06/07 07:27:14;;;;;;;7.70;7.00;;;19.20;99.90;;;;;;5052584;28;20171;-79
2023/06/07 07:29:40;;;;;;;9.07;8.17;;;19.10;99.90;;;;;;5034847;28;20167;-77
2023/06/07 07:32:06;;;;;;;10.30;8.13;;;19.20;99.90;;;;;;5058099;28;20179;-77
2023/06/07 07:34:32;;;;;;;9.30;7.93;;;19.10;99.90;;;;;;5051430;28;20840;-78
2023/06/07 07:37:02;;;;;;;8.27;7.47;;;19.20;99.90;;;;;;5068530;28;20187;-77
2023/06/07 07:39:28;;;;;;;8.53;7.73;;;19.40;99.90;;;;;;5068647;28;20168;-78
2023/06/07 07:41:54;;;;;;;8.47;7.67;;;19.70;99.90;;;;;;5069519;28;20188;-79
2023/06/07 07:44:20;;;;;;;8.17;7.37;;;19.70;99.90;;;;;;5068550;28;20187;-78
2023/06/07 07:46:45;;;;;;;9.00;7.20;;;19.80;99.90;;;;;;5069159;28;20214;-78
2023/06/07 07:49:11;;;;;;;8.70;7.80;;;19.60;99.90;;;;;;5060108;28;20282;-78
2023/06/07 07:51:37;;;;;;;9.23;7.80;;;19.40;99.90;;;;;;5053020;28;20581;-77
2023/06/07 07:54:03;;;;;;;8.67;7.33;;;19.30;99.90;;;;;;5056770;28;20239;-78
2023/06/07 07:56:29;;;;;;;8.27;7.50;;;19.40;99.90;;;;;;5053213;28;20172;-78
2023/06/07 07:58:55;;;;;;;8.53;7.63;;;19.40;99.90;;;;;;5052877;28;20514;-78
2023/06/07 08:01:22;;;;;;;8.30;7.37;;;19.50;99.90;;;;;;5052751;28;20184;-77
2023/06/07 08:03:48;;;;;;;8.53;7.63;;;19.60;99.90;;;;;;5052029;28;20674;-76
2023/06/07 08:06:13;;;;;;;9.20;7.50;;;19.60;99.90;;;;;;5052628;28;20256;-78
2023/06/07 08:08:39;;;;;;;8.33;7.40;;;19.60;99.90;;;;;;5052776;28;20911;-77
2023/06/07 08:11:05;;;;;;;7.67;7.00;;;19.80;99.90;;;;;;5051466;28;20229;-78
2023/06/07 08:13:31;;;;;;;10.83;8.30;;;19.90;99.90;;;;;;5052069;28;20227;-80
2023/06/07 08:15:56;;;;;;;7.93;7.20;;;19.90;99.90;;;;;;5052524;28;20176;-77
2023/06/07 08:18:22;;;;;;;11.60;7.50;;;19.90;99.90;;;;;;5052564;28;20245;-78
2023/06/07 08:20:48;;;;;;;8.20;7.40;;;19.90;99.90;;;;;;5052891;28;20179;-78
2023/06/07 08:23:14;;;;;;;9.23;7.97;;;19.90;99.90;;;;;;5052107;28;20200;-78
2023/06/07 08:25:40;;;;;;;9.03;7.27;;;19.90;99.90;;;;;;5051964;28;20251;-80
2023/06/07 08:28:06;;;;;;;7.67;6.90;;;19.90;99.90;;;;;;5050432;28;20726;-78
2023/06/07 08:30:32;;;;;;;8.80;8.00;;;20.10;99.90;;;;;;5051802;28;20538;-78
2023/06/07 08:32:58;;;;;;;11.30;7.67;;;20.20;99.90;;;;;;5052094;28;20202;-77
2023/06/07 08:35:24;;;;;;;8.97;7.20;;;20.30;99.90;;;;;;5052258;28;20231;-78
2023/06/07 08:37:49;;;;;;;8.90;7.30;;;20.40;99.90;;;;;;5052404;28;20298;-79
2023/06/07 08:40:19;;;;;;;8.17;7.47;;;20.40;99.90;;;;;;5052689;28;20680;-79
2023/06/07 08:42:46;;;;;;;7.77;6.93;;;20.50;99.90;;;;;;5060192;28;20287;-79
2023/06/07 08:45:13;;;;;;;8.53;6.90;;;20.50;99.90;;;;;;5051733;28;20187;-79
2023/06/07 08:47:43;;;;;;;7.77;7.17;;;20.70;99.90;;;;;;5051925;28;20190;-78
2023/06/07 08:50:19;;;;;;;7.60;6.90;;;20.70;99.90;;;;;;5034931;28;20243;-78
2023/06/07 08:52:50;;;;;;;8.07;7.27;;;20.80;99.90;;;;;;5060816;28;20164;-81
2023/06/07 08:55:17;;;;;;;7.50;6.80;;;20.90;99.90;;;;;;5057326;28;20195;-78
2023/06/07 08:57:52;;;;;;;8.03;7.03;;;21.10;99.90;;;;;;5053093;28;20508;-77
2023/06/07 09:00:25;;;;;;;7.43;6.73;;;21.20;99.90;;;;;;5052475;28;20171;-78
2023/06/07 09:02:52;;;;;;;6.67;6.07;;;21.50;99.90;;;;;;5051669;28;20681;-79
2023/06/07 09:05:22;;;;;;;7.63;6.37;;;21.40;99.90;;;;;;5051772;28;20202;-78
2023/06/07 09:07:49;;;;;;;8.23;7.43;;;21.60;99.90;;;;;;5051499;28;20187;-77
2023/06/07 09:10:17;;;;;;;7.30;6.60;;;21.70;99.90;;;;;;5051946;28;20179;-77
2023/06/07 09:12:47;;;;;;;9.20;6.97;;;21.80;99.90;;;;;;5051632;28;20176;-77
2023/06/07 09:15:21;;;;;;;7.47;6.83;;;21.90;99.90;;;;;;5053939;28;20220;-79
2023/06/07 09:17:51;;;;;;;9.47;7.30;;;22.10;99.90;;;;;;5055346;28;20215;-80
2023/06/07 09:20:27;;;;;;;7.83;7.03;;;22.00;99.90;;;;;;5054865;28;20211;-77
2023/06/07 09:23:09;;;;;;;8.30;7.00;;;22.10;99.90;;;;;;5054727;28;20186;-78
2023/06/07 09:25:37;;;;;;;7.30;6.70;;;21.90;99.90;;;;;;5054889;28;20240;-77
2023/06/07 09:28:04;;;;;;;8.57;7.00;;;21.80;99.90;;;;;;5054821;28;20176;-79
2023/06/07 09:30:30;;;;;;;7.50;6.57;;;21.60;99.90;;;;;;5054771;28;20172;-76
2023/06/07 09:32:55;;;;;;;7.27;6.60;;;21.50;99.90;;;;;;5036019;28;20709;-78
2023/06/07 09:35:21;;;;;;;8.20;7.37;;;21.60;99.90;;;;;;5053935;28;20211;-76
2023/06/07 09:37:55;;;;;;;8.10;7.13;;;21.70;99.90;;;;;;5054877;28;20203;-77
2023/06/07 09:40:23;;;;;;;7.97;7.13;;;21.60;99.90;;;;;;5054573;28;20166;-80
2023/06/07 09:42:58;;;;;;;7.60;6.90;;;21.70;99.90;;;;;;5054075;28;20172;-78
2023/06/07 09:45:26;;;;;;;7.60;6.47;;;21.70;99.90;;;;;;5054402;28;20250;-78
2023/06/07 09:48:06;;;;;;;6.67;6.07;;;21.80;99.90;;;;;;5054767;28;20175;-78
2023/06/07 09:50:32;;;;;;;6.97;6.40;;;22.10;99.90;;;;;;5054462;28;20219;-77
2023/06/07 09:52:59;;;;;;;8.07;6.30;;;22.30;99.90;;;;;;5054147;28;20218;-79
2023/06/07 09:55:27;;;;;;;9.68;6.38;;;22.50;99.90;;;;;;5054215;28;20203;-78
2023/06/07 09:57:53;;;;;;;8.30;7.15;;;22.60;99.90;;;;;;5054388;28;20168;-78
2023/06/07 10:00:19;;;;;;;7.22;6.53;;;22.50;99.90;;;;;;5036230;28;20283;-78
2023/06/07 10:02:46;;;;;;;8.15;6.30;;;22.50;99.90;;;;;;5053797;28;20168;-75
2023/06/07 10:05:14;;;;;;;6.20;5.70;;;22.30;99.90;;;;;;5054247;28;20192;-80
2023/06/07 10:07:46;;;;;;;5.90;5.40;;;22.30;99.90;;;;;;5054526;28;20183;-79
2023/06/07 10:10:16;;;;;;;6.00;5.40;;;22.30;99.90;;;;;;5054197;28;20172;-78
2023/06/07 10:12:44;;;;;;;6.32;5.32;;;22.60;99.90;;;;;;5053958;28;20187;-77
2023/06/07 10:15:12;;;;;;;6.10;5.47;;;23.10;99.90;;;;;;5053574;28;20229;-76
2023/06/07 10:17:54;;;;;;;5.53;5.00;;;23.10;99.90;;;;;;5054058;28;20662;-79
2023/06/07 10:20:28;;;;;;;5.50;5.10;;;23.00;99.90;;;;;;5054310;28;20164;-77
2023/06/07 10:23:03;;;;;;;6.47;5.97;;;23.20;99.90;;;;;;5053708;28;20160;-78
2023/06/07 10:25:35;;;;;;;7.10;6.50;;;23.10;99.90;;;;;;5053472;28;20166;-77
2023/06/07 10:28:21;;;;;;;9.40;7.00;;;22.80;99.90;;;;;;5054207;28;20474;-80
2023/06/07 10:31:05;;;;;;;7.03;6.28;;;22.70;99.90;;;;;;5054490;28;20633;-76
2023/06/07 10:33:33;;;;;;;6.63;6.13;;;22.50;99.90;;;;;;5052864;28;20164;-79
2023/06/07 10:35:59;;;;;;;7.83;7.00;;;22.50;99.90;;;;;;5053445;28;20210;-79
2023/06/07 10:38:32;;;;;;;6.80;6.23;;;22.70;99.90;;;;;;5053699;28;20646;-78
2023/06/07 10:41:00;;;;;;;6.37;5.67;;;23.00;99.90;;;;;;5053652;28;20651;-79
2023/06/07 10:43:30;;;;;;;7.53;6.70;;;22.90;99.90;;;;;;5052987;28;20207;-78
2023/06/07 10:46:23;;;;;;;8.73;6.50;;;22.70;99.90;;;;;;5053356;28;20585;-78
2023/06/07 10:48:50;;;;;;;7.53;5.80;;;22.90;99.90;;;;;;5053419;28;20529;-77
2023/06/07 10:51:16;;;;;;;5.57;5.07;;;23.10;99.90;;;;;;5055071;28;20249;-79
2023/06/07 10:53:56;;;;;;;5.20;4.80;;;23.60;99.90;;;;;;5053545;28;20207;-78
2023/06/07 10:56:33;;;;;;;5.43;4.93;;;23.80;99.90;;;;;;5053369;28;20187;-79
2023/06/07 10:59:14;;;;;;;5.97;5.25;;;23.90;99.90;;;;;;5054291;28;20171;-79
2023/06/07 11:01:40;;;;;;;7.38;6.68;;;23.70;99.90;;;;;;5035336;28;20534;-79
2023/06/07 11:04:06;;;;;;;6.57;4.97;;;23.70;99.90;;;;;;5052348;28;20631;-75
2023/06/07 11:06:33;;;;;;;5.10;4.70;;;23.80;99.90;;;;;;5053337;28;20937;-77
2023/06/07 11:09:18;;;;;;;5.63;4.20;;;23.60;99.90;;;;;;5052777;28;20639;-77
2023/06/07 11:11:44;;;;;;;5.28;4.78;;;23.60;99.90;;;;;;5035113;28;20175;-78
2023/06/07 11:14:11;;;;;;;5.45;5.05;;;23.60;99.90;;;;;;5052300;28;20204;-79
2023/06/07 11:16:38;;;;;;;4.88;4.57;;;23.70;99.90;;;;;;5054628;28;20167;-78
2023/06/07 11:19:14;;;;;;;5.22;4.60;;;23.80;99.90;;;;;;5052772;28;20228;-79
2023/06/07 11:21:55;;;;;;;4.50;4.10;;;24.10;99.90;;;;;;5052592;28;20528;-77
2023/06/07 11:24:21;;;;;;;4.35;4.05;;;24.20;99.90;;;;;;5052028;28;20191;-78
2023/06/07 11:26:50;;;;;;;4.65;4.35;;;24.40;99.90;;;;;;5052678;28;20200;-78
2023/06/07 11:29:19;;;;;;;4.53;4.22;;;24.60;99.90;;;;;;5052631;28;20628;-80
2023/06/07 11:32:03;;;;;;;4.70;4.40;;;24.60;99.90;;;;;;5052491;28;20259;-77
2023/06/07 11:34:30;;;;;;;4.57;4.28;;;24.40;99.90;;;;;;5051849;28;20204;-78
2023/06/07 11:37:07;;;;;;;4.38;4.07;;;24.30;99.90;;;;;;5051893;28;20170;-77
2023/06/07 11:39:33;;;;;;;4.07;3.88;;;24.10;99.90;;;;;;5052518;28;20164;-78
2023/06/07 11:41:59;;;;;;;4.47;4.18;;;24.00;99.90;;;;;;5052725;28;20233;-77
2023/06/07 11:44:25;;;;;;;4.38;4.05;;;24.00;99.90;;;;;;5051911;28;20174;-79
2023/06/07 11:46:51;;;;;;;4.30;4.10;;;24.00;99.90;;;;;;5052263;28;20184;-80
2023/06/07 11:49:17;;;;;;;4.85;3.97;;;26.10;99.90;;;;;;5052562;28;20631;-79
2023/06/07 11:51:51;;;;;;;4.55;3.97;;;24.10;99.90;;;;;;5052278;28;20223;-77
2023/06/07 11:54:16;;;;;;;5.10;4.70;;;24.20;99.90;;;;;;5053155;28;20223;-80
2023/06/07 11:56:43;;;;;;;4.10;3.90;;;24.20;99.90;;;;;;5057240;28;20225;-77
2023/06/07 11:59:10;;;;;;;3.80;3.60;;;24.40;99.90;;;;;;5053794;28;20511;-77
2023/06/07 12:01:39;;;;;;;3.88;3.58;;;24.40;99.90;;;;;;5052326;28;20250;-78
2023/06/07 12:04:06;;;;;;;4.18;3.83;;;24.30;99.90;;;;;;5053355;28;20206;-78
2023/06/07 12:06:33;;;;;;;5.15;3.90;;;24.30;99.90;;;;;;5061655;28;20171;-79
2023/06/07 12:08:59;;;;;;;3.92;3.63;;;24.20;99.90;;;;;;5052734;28;20172;-76
2023/06/07 12:11:25;;;;;;;3.97;3.78;;;24.10;99.90;;;;;;5052322;28;20184;-80
2023/06/07 12:13:59;;;;;;;3.88;3.58;;;23.60;99.90;;;;;;5051962;28;20229;-77
2023/06/07 12:16:26;;;;;;;3.90;3.70;;;23.50;99.90;;;;;;5051997;28;20188;-78
2023/06/07 12:18:51;;;;;;;3.83;3.60;;;23.40;99.90;;;;;;5049591;28;20230;-78
2023/06/07 12:21:18;;;;;;;3.83;3.63;;;23.30;99.90;;;;;;5051975;28;20168;-79
2023/06/07 12:23:51;;;;;;;3.85;3.65;;;23.20;99.90;;;;;;5051959;28;20719;-77
2023/06/07 12:26:20;;;;;;;3.83;3.53;;;23.30;99.90;;;;;;5053464;28;20163;-79
2023/06/07 12:28:49;;;;;;;4.07;3.78;;;23.20;99.90;;;;;;5052286;28;20217;-79
2023/06/07 12:31:16;;;;;;;4.20;3.90;;;23.20;99.90;;;;;;5051954;28;20176;-77
2023/06/07 12:34:03;;;;;;;4.15;3.85;;;23.30;99.90;;;;;;5051450;28;20196;-80
2023/06/07 12:36:33;;;;;;;4.72;3.83;;;23.20;99.90;;;;;;5051435;28;20164;-80
2023/06/07 12:39:00;;;;;;;4.20;3.83;;;23.30;99.90;;;;;;5051715;28;20588;-77
2023/06/07 12:41:28;;;;;;;3.90;3.63;;;23.10;99.90;;;;;;5036210;28;20652;-78
2023/06/07 12:43:54;;;;;;;4.40;3.50;;;23.10;99.90;;;;;;5051274;28;20623;-77
2023/06/07 12:46:20;;;;;;;3.90;3.67;;;23.20;99.90;;;;;;5051387;28;20280;-78
2023/06/07 12:48:46;;;;;;;4.03;3.83;;;23.10;99.90;;;;;;5052180;28;20179;-78